Sylvania, New South Wales

3:13 PM EST on August 22, 2014 (GMT +1000)
Sutherland Shire - Caringbah South | Change Station
CLOSE
Current Station
Personal Weather Station
Location: Sydney, New South Wales
Elevation: 187 ft
Nearby Weather Stations

Elev 187 ft 34.05 °S, 151.12 °E | Updated 33 minutes ago

Partly Cloudy
Partly Cloudy
68.2 °F
Feels Like 68.2 °F
N
2.0
Wind Variable Wind from SSE
Gusts 11.4 mph

Today
High -- | Low -- °F
--% Chance of Precip.
Yesterday
High -- | Low -- °F
Precip. -- in
6:27 AM 5:30 PM
Waning Crescent, 10% visible
Pressure 30.39 in
Visibility 6.2 miles
Clouds Few 2500 ft
Few 2000 ft
Dew Point 56 °F
Humidity 65%
Rainfall 0.02 in
Snow Depth Not available.
UV 2 out of 12
Pollen Not available.
Air Quality Not available.
Flu Activity Not available.
METAR YSSY 220500Z 17015KT 9999 FEW025 FEW020TCU 16/12 Q1029 RMK CB TOP TO DISTANT S NOSIG

More Conditions Fewer Conditions

Pressure 30.39 in
Visibility 6.2 miles
Clouds Few 2500 ft
Few 2000 ft
Dew Point 56 °F
Humidity 65%
Rainfall 0.02 in
Snow Depth Not available.
UV 2 out of 12
Pollen Not available.
Air Quality Not available.
Flu Activity Not available.
METAR YSSY 220500Z 17015KT 9999 FEW025 FEW020TCU 16/12 Q1029 RMK CB TOP TO DISTANT S NOSIG

More Conditions Fewer Conditions

10-Day Weather Forecast

Almanac

Astronomy

Aug. 22, 2014 Rise Set
Actual Time 6:27 AM EST 5:30 PM EST
Civil Twilight 6:01 AM EST 5:55 PM EST
Nautical Twilight 5:32 AM EST 6:25 PM EST
Astronomical Twilight 5:03 AM EST 6:54 PM EST
Moon 3:54 AM EST 2:38 PM EST
Length of Visible Light 11h 54m
Length of Day
11h 03m
Tomorrow will be 1m 53s longer.
Waning Crescent, 10% of the Moon is Illuminated
Today
Waning Crescent
Aug 25
New
Sep 2
First Quarter
Sep 8
Full
Sep 15
Last Quarter

Yesterday's Extremes

Country Highs Country Lows

Community

WunderPhotos

Upload Photos

1,746,131 photos uploaded!

Nearby

Snow Depth

Not available.

Earthquake Activity

City Distance Mag. Time & Date
No recent earthquake activity has been reported nearby.
Minimum magnitude displayed is 2.5.

Coastal Water Temperatures

Place Temperature
No Stations Reporting

Nearby Weather Stations